sensor_id;sensor_type;location;lat;lon;timestamp;pressure;altitude;pressure_sealevel;temperature;humidity
34235;BME280;20500;49.856;20.290;2022-12-29T00:01:20;98960.46;;;4.37;62.28
34235;BME280;20500;49.856;20.290;2022-12-29T00:04:26;98959.55;;;4.28;62.20
34235;BME280;20500;49.856;20.290;2022-12-29T00:07:32;98960.16;;;4.22;62.24
34235;BME280;20500;49.856;20.290;2022-12-29T00:10:38;98961.48;;;4.17;62.16
34235;BME280;20500;49.856;20.290;2022-12-29T00:13:44;98962.20;;;4.13;62.12
34235;BME280;20500;49.856;20.290;2022-12-29T00:17:08;98968.20;;;4.07;62.18
34235;BME280;20500;49.856;20.290;2022-12-29T00:20:14;98969.69;;;4.01;62.23
34235;BME280;20500;49.856;20.290;2022-12-29T00:23:39;98973.79;;;3.93;62.12
34235;BME280;20500;49.856;20.290;2022-12-29T00:27:12;98974.36;;;3.89;62.14
34235;BME280;20500;49.856;20.290;2022-12-29T00:30:37;98980.85;;;3.84;62.17
34235;BME280;20500;49.856;20.290;2022-12-29T00:34:01;98977.45;;;3.81;62.13
34235;BME280;20500;49.856;20.290;2022-12-29T00:37:24;98979.52;;;3.76;62.25
34235;BME280;20500;49.856;20.290;2022-12-29T00:40:45;98984.89;;;3.74;62.24
34235;BME280;20500;49.856;20.290;2022-12-29T00:44:23;98991.23;;;3.73;62.11
34235;BME280;20500;49.856;20.290;2022-12-29T00:47:29;98981.16;;;3.73;62.00
34235;BME280;20500;49.856;20.290;2022-12-29T00:50:34;98976.63;;;3.74;62.02
34235;BME280;20500;49.856;20.290;2022-12-29T00:53:40;98970.61;;;3.73;61.76
34235;BME280;20500;49.856;20.290;2022-12-29T00:56:47;98963.21;;;3.74;61.85
34235;BME280;20500;49.856;20.290;2022-12-29T00:59:53;98960.18;;;3.73;61.99
34235;BME280;20500;49.856;20.290;2022-12-29T01:03:00;98967.92;;;3.73;61.99
34235;BME280;20500;49.856;20.290;2022-12-29T01:06:09;98969.51;;;3.71;61.75
34235;BME280;20500;49.856;20.290;2022-12-29T01:09:16;98973.87;;;3.71;61.60
34235;BME280;20500;49.856;20.290;2022-12-29T01:12:40;98975.63;;;3.69;61.88
34235;BME280;20500;49.856;20.290;2022-12-29T01:15:52;98977.42;;;3.67;61.87
34235;BME280;20500;49.856;20.290;2022-12-29T01:18:58;98983.48;;;3.68;61.85
34235;BME280;20500;49.856;20.290;2022-12-29T01:22:04;98988.23;;;3.75;61.68
34235;BME280;20500;49.856;20.290;2022-12-29T01:25:09;98990.60;;;3.80;61.57
34235;BME280;20500;49.856;20.290;2022-12-29T01:28:15;98985.21;;;3.86;61.64
34235;BME280;20500;49.856;20.290;2022-12-29T01:31:29;98983.30;;;3.89;61.55
34235;BME280;20500;49.856;20.290;2022-12-29T01:34:34;98978.05;;;3.89;61.39
34235;BME280;20500;49.856;20.290;2022-12-29T01:37:40;98968.73;;;3.87;61.43
34235;BME280;20500;49.856;20.290;2022-12-29T01:40:47;98967.13;;;3.81;61.65
34235;BME280;20500;49.856;20.290;2022-12-29T01:43:55;98968.91;;;3.72;61.67
34235;BME280;20500;49.856;20.290;2022-12-29T01:47:02;98962.11;;;3.62;61.69
34235;BME280;20500;49.856;20.290;2022-12-29T01:50:08;98958.42;;;3.55;61.74
34235;BME280;20500;49.856;20.290;2022-12-29T01:53:18;98957.48;;;3.50;61.84
34235;BME280;20500;49.856;20.290;2022-12-29T01:56:25;98950.88;;;3.46;61.90
34235;BME280;20500;49.856;20.290;2022-12-29T01:59:34;98941.41;;;3.43;61.94
34235;BME280;20500;49.856;20.290;2022-12-29T02:02:45;98935.23;;;3.42;61.84
34235;BME280;20500;49.856;20.290;2022-12-29T02:05:56;98930.92;;;3.40;61.90
34235;BME280;20500;49.856;20.290;2022-12-29T02:09:05;98928.11;;;3.39;61.88
34235;BME280;20500;49.856;20.290;2022-12-29T02:12:11;98929.00;;;3.39;61.93
34235;BME280;20500;49.856;20.290;2022-12-29T02:15:19;98926.02;;;3.38;61.81
34235;BME280;20500;49.856;20.290;2022-12-29T02:18:35;98931.80;;;3.40;61.79
34235;BME280;20500;49.856;20.290;2022-12-29T02:21:57;98935.83;;;3.43;61.93
34235;BME280;20500;49.856;20.290;2022-12-29T02:25:41;98934.36;;;3.48;61.90
34235;BME280;20500;49.856;20.290;2022-12-29T02:29:08;98935.46;;;3.48;62.00
34235;BME280;20500;49.856;20.290;2022-12-29T02:32:27;98923.85;;;3.47;62.05
34235;BME280;20500;49.856;20.290;2022-12-29T02:35:39;98916.95;;;3.50;61.95
34235;BME280;20500;49.856;20.290;2022-12-29T02:38:59;98916.42;;;3.53;61.80
34235;BME280;20500;49.856;20.290;2022-12-29T02:42:16;98916.80;;;3.55;61.88
34235;BME280;20500;49.856;20.290;2022-12-29T02:45:31;98911.21;;;3.52;62.12
34235;BME280;20500;49.856;20.290;2022-12-29T02:48:43;98911.61;;;3.46;62.10
34235;BME280;20500;49.856;20.290;2022-12-29T02:51:54;98904.85;;;3.41;62.15
34235;BME280;20500;49.856;20.290;2022-12-29T02:55:05;98895.98;;;3.40;62.16
34235;BME280;20500;49.856;20.290;2022-12-29T02:58:20;98891.80;;;3.38;62.48
34235;BME280;20500;49.856;20.290;2022-12-29T03:01:33;98888.36;;;3.43;62.48
34235;BME280;20500;49.856;20.290;2022-12-29T03:04:53;98886.12;;;3.63;62.65
34235;BME280;20500;49.856;20.290;2022-12-29T03:08:13;98878.07;;;3.90;62.51
34235;BME280;20500;49.856;20.290;2022-12-29T03:11:27;98870.64;;;4.13;62.44
34235;BME280;20500;49.856;20.290;2022-12-29T03:14:57;98875.86;;;4.30;62.29
34235;BME280;20500;49.856;20.290;2022-12-29T03:18:25;98870.62;;;4.45;62.28
34235;BME280;20500;49.856;20.290;2022-12-29T03:21:36;98860.48;;;4.55;62.12
34235;BME280;20500;49.856;20.290;2022-12-29T03:25:05;98858.30;;;4.64;62.14
34235;BME280;20500;49.856;20.290;2022-12-29T03:28:18;98855.20;;;4.72;62.26
34235;BME280;20500;49.856;20.290;2022-12-29T03:31:26;98849.48;;;4.94;62.38
34235;BME280;20500;49.856;20.290;2022-12-29T03:34:33;98838.64;;;5.12;62.32
34235;BME280;20500;49.856;20.290;2022-12-29T03:37:43;98833.59;;;5.27;62.34
34235;BME280;20500;49.856;20.290;2022-12-29T03:40:55;98836.66;;;5.41;62.34
34235;BME280;20500;49.856;20.290;2022-12-29T03:44:02;98835.21;;;5.52;62.31
34235;BME280;20500;49.856;20.290;2022-12-29T03:47:12;98827.07;;;5.61;62.28
34235;BME280;20500;49.856;20.290;2022-12-29T03:50:19;98826.21;;;5.67;62.25
34235;BME280;20500;49.856;20.290;2022-12-29T03:53:23;98821.78;;;5.70;62.35
34235;BME280;20500;49.856;20.290;2022-12-29T03:56:30;98822.88;;;5.72;62.17
34235;BME280;20500;49.856;20.290;2022-12-29T03:59:36;98820.27;;;5.73;61.95
34235;BME280;20500;49.856;20.290;2022-12-29T04:02:40;98829.24;;;5.75;61.99
34235;BME280;20500;49.856;20.290;2022-12-29T04:05:47;98829.39;;;5.73;61.92
34235;BME280;20500;49.856;20.290;2022-12-29T04:08:54;98829.49;;;5.69;61.89
34235;BME280;20500;49.856;20.290;2022-12-29T04:11:58;98829.51;;;5.65;61.97
34235;BME280;20500;49.856;20.290;2022-12-29T04:15:06;98829.15;;;5.63;61.94
34235;BME280;20500;49.856;20.290;2022-12-29T04:18:12;98833.30;;;5.61;61.81
34235;BME280;20500;49.856;20.290;2022-12-29T04:21:18;98840.41;;;5.60;61.97
34235;BME280;20500;49.856;20.290;2022-12-29T04:24:25;98847.92;;;5.59;61.95
34235;BME280;20500;49.856;20.290;2022-12-29T04:27:31;98854.52;;;5.58;61.87
34235;BME280;20500;49.856;20.290;2022-12-29T04:30:38;98863.11;;;5.57;61.87
34235;BME280;20500;49.856;20.290;2022-12-29T04:33:44;98863.20;;;5.54;61.88
34235;BME280;20500;49.856;20.290;2022-12-29T04:36:50;98864.58;;;5.53;61.89
34235;BME280;20500;49.856;20.290;2022-12-29T04:39:56;98858.13;;;5.53;61.73
34235;BME280;20500;49.856;20.290;2022-12-29T04:43:03;98861.59;;;5.51;61.93
34235;BME280;20500;49.856;20.290;2022-12-29T04:46:09;98861.92;;;5.47;61.85
34235;BME280;20500;49.856;20.290;2022-12-29T04:49:15;98861.61;;;5.45;61.90
34235;BME280;20500;49.856;20.290;2022-12-29T04:52:20;98868.15;;;5.43;61.94
34235;BME280;20500;49.856;20.290;2022-12-29T04:55:26;98862.70;;;5.40;61.87
34235;BME280;20500;49.856;20.290;2022-12-29T04:58:33;98850.52;;;5.37;61.75
34235;BME280;20500;49.856;20.290;2022-12-29T05:01:37;98836.29;;;5.32;61.84
34235;BME280;20500;49.856;20.290;2022-12-29T05:04:43;98829.52;;;5.28;61.95
34235;BME280;20500;49.856;20.290;2022-12-29T05:07:50;98830.58;;;5.23;62.07
34235;BME280;20500;49.856;20.290;2022-12-29T05:10:55;98823.18;;;5.18;61.96
34235;BME280;20500;49.856;20.290;2022-12-29T05:14:01;98817.57;;;5.13;61.83
34235;BME280;20500;49.856;20.290;2022-12-29T05:17:07;98818.29;;;5.07;61.92
34235;BME280;20500;49.856;20.290;2022-12-29T05:20:12;98817.70;;;5.02;62.07
34235;BME280;20500;49.856;20.290;2022-12-29T05:23:18;98817.90;;;5.00;62.21
34235;BME280;20500;49.856;20.290;2022-12-29T05:26:23;98826.31;;;4.97;62.09
34235;BME280;20500;49.856;20.290;2022-12-29T05:29:29;98826.40;;;4.93;62.17
34235;BME280;20500;49.856;20.290;2022-12-29T05:32:35;98823.38;;;4.94;62.07
34235;BME280;20500;49.856;20.290;2022-12-29T05:35:40;98818.38;;;5.03;62.24
34235;BME280;20500;49.856;20.290;2022-12-29T05:38:46;98819.10;;;5.11;62.25
34235;BME280;20500;49.856;20.290;2022-12-29T05:41:53;98818.54;;;5.19;62.20
34235;BME280;20500;49.856;20.290;2022-12-29T05:44:59;98820.70;;;5.23;62.12
34235;BME280;20500;49.856;20.290;2022-12-29T05:48:06;98820.34;;;5.28;62.21
34235;BME280;20500;49.856;20.290;2022-12-29T05:51:12;98815.88;;;5.33;62.04
34235;BME280;20500;49.856;20.290;2022-12-29T05:54:19;98813.31;;;5.37;62.16
34235;BME280;20500;49.856;20.290;2022-12-29T05:57:25;98809.73;;;5.44;62.16
34235;BME280;20500;49.856;20.290;2022-12-29T06:00:29;98818.52;;;5.51;62.03
34235;BME280;20500;49.856;20.290;2022-12-29T06:03:37;98822.38;;;5.56;62.14
34235;BME280;20500;49.856;20.290;2022-12-29T06:06:51;98826.77;;;5.58;62.13
34235;BME280;20500;49.856;20.290;2022-12-29T06:09:57;98821.38;;;5.57;62.18
34235;BME280;20500;49.856;20.290;2022-12-29T06:13:04;98818.64;;;5.53;62.08
34235;BME280;20500;49.856;20.290;2022-12-29T06:16:11;98812.03;;;5.53;62.32
34235;BME280;20500;49.856;20.290;2022-12-29T06:19:17;98821.58;;;5.51;62.33
34235;BME280;20500;49.856;20.290;2022-12-29T06:22:24;98822.50;;;5.46;62.24
34235;BME280;20500;49.856;20.290;2022-12-29T06:25:28;98813.41;;;5.42;62.37
34235;BME280;20500;49.856;20.290;2022-12-29T06:28:37;98810.05;;;5.37;62.25
34235;BME280;20500;49.856;20.290;2022-12-29T06:31:43;98807.28;;;5.34;62.20
34235;BME280;20500;49.856;20.290;2022-12-29T06:34:50;98804.46;;;5.32;62.36
34235;BME280;20500;49.856;20.290;2022-12-29T06:37:54;98816.16;;;5.32;62.39
34235;BME280;20500;49.856;20.290;2022-12-29T06:41:01;98818.92;;;5.33;62.38
34235;BME280;20500;49.856;20.290;2022-12-29T06:44:07;98813.60;;;5.28;62.26
34235;BME280;20500;49.856;20.290;2022-12-29T06:47:14;98812.88;;;5.23;62.36
34235;BME280;20500;49.856;20.290;2022-12-29T06:50:18;98824.14;;;5.19;62.39
34235;BME280;20500;49.856;20.290;2022-12-29T06:53:24;98821.61;;;5.15;62.65
34235;BME280;20500;49.856;20.290;2022-12-29T06:56:31;98824.25;;;5.14;62.50
34235;BME280;20500;49.856;20.290;2022-12-29T06:59:38;98821.17;;;5.12;62.58
34235;BME280;20500;49.856;20.290;2022-12-29T07:02:42;98816.20;;;5.10;62.53
34235;BME280;20500;49.856;20.290;2022-12-29T07:05:49;98810.59;;;5.09;62.60
34235;BME280;20500;49.856;20.290;2022-12-29T07:08:53;98812.21;;;5.08;62.77
34235;BME280;20500;49.856;20.290;2022-12-29T07:12:02;98814.22;;;5.12;62.84
34235;BME280;20500;49.856;20.290;2022-12-29T07:15:07;98812.94;;;5.16;62.84
34235;BME280;20500;49.856;20.290;2022-12-29T07:18:13;98809.08;;;5.22;62.97
34235;BME280;20500;49.856;20.290;2022-12-29T07:21:21;98803.67;;;5.35;62.90
34235;BME280;20500;49.856;20.290;2022-12-29T07:24:27;98801.52;;;5.48;62.81
34235;BME280;20500;49.856;20.290;2022-12-29T07:27:34;98801.52;;;5.55;62.82
34235;BME280;20500;49.856;20.290;2022-12-29T07:30:40;98805.63;;;5.56;62.85
34235;BME280;20500;49.856;20.290;2022-12-29T07:33:45;98802.88;;;5.58;62.96
34235;BME280;20500;49.856;20.290;2022-12-29T07:36:52;98799.38;;;5.62;62.93
34235;BME280;20500;49.856;20.290;2022-12-29T07:39:58;98791.04;;;5.68;62.86
34235;BME280;20500;49.856;20.290;2022-12-29T07:43:05;98787.36;;;5.73;62.90
34235;BME280;20500;49.856;20.290;2022-12-29T07:46:09;98781.59;;;5.76;63.03
34235;BME280;20500;49.856;20.290;2022-12-29T07:49:36;98779.11;;;5.81;62.99
34235;BME280;20500;49.856;20.290;2022-12-29T07:52:42;98773.02;;;5.91;62.97
34235;BME280;20500;49.856;20.290;2022-12-29T07:55:49;98767.26;;;6.02;62.91
34235;BME280;20500;49.856;20.290;2022-12-29T07:58:54;98760.17;;;6.05;62.87
34235;BME280;20500;49.856;20.290;2022-12-29T08:02:00;98767.66;;;6.11;63.05
34235;BME280;20500;49.856;20.290;2022-12-29T08:05:08;98773.73;;;6.19;63.09
34235;BME280;20500;49.856;20.290;2022-12-29T08:08:14;98771.50;;;6.28;63.07
34235;BME280;20500;49.856;20.290;2022-12-29T08:11:18;98768.15;;;6.36;62.91
34235;BME280;20500;49.856;20.290;2022-12-29T08:14:25;98766.70;;;6.43;62.83
34235;BME280;20500;49.856;20.290;2022-12-29T08:17:29;98767.43;;;6.49;62.77
34235;BME280;20500;49.856;20.290;2022-12-29T08:20:36;98771.21;;;6.56;62.76
34235;BME280;20500;49.856;20.290;2022-12-29T08:23:42;98774.20;;;6.62;62.80
34235;BME280;20500;49.856;20.290;2022-12-29T08:26:46;98773.91;;;6.68;62.79
34235;BME280;20500;49.856;20.290;2022-12-29T08:29:53;98771.20;;;6.75;62.81
34235;BME280;20500;49.856;20.290;2022-12-29T08:32:59;98770.98;;;6.80;62.76
34235;BME280;20500;49.856;20.290;2022-12-29T08:36:08;98775.07;;;6.82;62.67
34235;BME280;20500;49.856;20.290;2022-12-29T08:39:14;98768.04;;;6.86;62.56
34235;BME280;20500;49.856;20.290;2022-12-29T08:42:21;98764.30;;;6.92;62.59
34235;BME280;20500;49.856;20.290;2022-12-29T08:45:27;98763.66;;;6.96;62.52
34235;BME280;20500;49.856;20.290;2022-12-29T08:48:34;98770.60;;;6.99;62.54
34235;BME280;20500;49.856;20.290;2022-12-29T08:51:39;98770.16;;;7.01;62.46
34235;BME280;20500;49.856;20.290;2022-12-29T08:54:45;98763.43;;;7.04;62.48
34235;BME280;20500;49.856;20.290;2022-12-29T08:57:51;98766.56;;;7.09;62.48
34235;BME280;20500;49.856;20.290;2022-12-29T09:00:56;98771.20;;;7.14;62.42
34235;BME280;20500;49.856;20.290;2022-12-29T09:04:03;98770.21;;;7.17;62.18
34235;BME280;20500;49.856;20.290;2022-12-29T09:07:20;98767.78;;;7.16;62.35
34235;BME280;20500;49.856;20.290;2022-12-29T09:10:24;98775.87;;;7.16;62.38
34235;BME280;20500;49.856;20.290;2022-12-29T09:13:30;98773.44;;;7.20;62.35
34235;BME280;20500;49.856;20.290;2022-12-29T09:16:37;98772.12;;;7.24;62.45
34235;BME280;20500;49.856;20.290;2022-12-29T09:19:44;98768.88;;;7.29;62.29
34235;BME280;20500;49.856;20.290;2022-12-29T09:22:48;98767.05;;;7.36;62.21
34235;BME280;20500;49.856;20.290;2022-12-29T09:25:55;98769.55;;;7.41;62.20
34235;BME280;20500;49.856;20.290;2022-12-29T09:29:01;98760.66;;;7.48;62.20
34235;BME280;20500;49.856;20.290;2022-12-29T09:32:06;98753.57;;;7.53;62.15
34235;BME280;20500;49.856;20.290;2022-12-29T09:35:20;98751.58;;;7.56;62.02
34235;BME280;20500;49.856;20.290;2022-12-29T09:38:28;98745.41;;;7.60;62.05
34235;BME280;20500;49.856;20.290;2022-12-29T09:41:38;98743.60;;;7.63;61.91
34235;BME280;20500;49.856;20.290;2022-12-29T09:44:55;98744.46;;;7.64;61.88
34235;BME280;20500;49.856;20.290;2022-12-29T09:48:11;98744.59;;;7.64;62.00
34235;BME280;20500;49.856;20.290;2022-12-29T09:51:23;98743.44;;;7.65;61.86
34235;BME280;20500;49.856;20.290;2022-12-29T09:54:38;98745.84;;;7.68;61.95
34235;BME280;20500;49.856;20.290;2022-12-29T09:57:49;98746.23;;;7.70;61.93
34235;BME280;20500;49.856;20.290;2022-12-29T10:01:02;98746.38;;;7.72;61.80
34235;BME280;20500;49.856;20.290;2022-12-29T10:04:10;98751.58;;;7.72;61.89
34235;BME280;20500;49.856;20.290;2022-12-29T10:07:24;98757.10;;;7.80;61.71
34235;BME280;20500;49.856;20.290;2022-12-29T10:10:39;98756.27;;;7.89;61.63
34235;BME280;20500;49.856;20.290;2022-12-29T10:13:56;98755.70;;;7.99;61.61
34235;BME280;20500;49.856;20.290;2022-12-29T10:17:12;98748.09;;;8.09;61.42
34235;BME280;20500;49.856;20.290;2022-12-29T10:20:30;98744.13;;;8.15;61.35
34235;BME280;20500;49.856;20.290;2022-12-29T10:23:42;98740.02;;;8.17;61.43
34235;BME280;20500;49.856;20.290;2022-12-29T10:26:52;98739.84;;;8.19;61.33
34235;BME280;20500;49.856;20.290;2022-12-29T10:29:59;98736.65;;;8.22;61.36
34235;BME280;20500;49.856;20.290;2022-12-29T10:33:10;98740.60;;;8.23;61.44
34235;BME280;20500;49.856;20.290;2022-12-29T10:36:20;98742.74;;;8.23;61.25
34235;BME280;20500;49.856;20.290;2022-12-29T10:39:32;98741.02;;;8.23;61.21
34235;BME280;20500;49.856;20.290;2022-12-29T10:42:43;98727.94;;;8.20;61.22
34235;BME280;20500;49.856;20.290;2022-12-29T10:45:51;98719.92;;;8.18;61.14
34235;BME280;20500;49.856;20.290;2022-12-29T10:48:58;98721.77;;;8.16;61.22
34235;BME280;20500;49.856;20.290;2022-12-29T10:52:07;98718.11;;;8.15;61.21
34235;BME280;20500;49.856;20.290;2022-12-29T10:55:17;98712.64;;;8.15;61.11
34235;BME280;20500;49.856;20.290;2022-12-29T10:58:26;98706.73;;;8.16;61.11
34235;BME280;20500;49.856;20.290;2022-12-29T11:01:37;98703.59;;;8.17;61.17
34235;BME280;20500;49.856;20.290;2022-12-29T11:04:53;98698.75;;;8.24;61.26
34235;BME280;20500;49.856;20.290;2022-12-29T11:07:59;98685.86;;;8.34;61.34
34235;BME280;20500;49.856;20.290;2022-12-29T11:11:08;98679.57;;;8.42;61.32
34235;BME280;20500;49.856;20.290;2022-12-29T11:14:17;98669.80;;;8.59;61.45
34235;BME280;20500;49.856;20.290;2022-12-29T11:17:24;98666.87;;;8.82;61.29
34235;BME280;20500;49.856;20.290;2022-12-29T11:20:34;98663.52;;;9.06;61.17
34235;BME280;20500;49.856;20.290;2022-12-29T11:23:43;98665.61;;;9.28;61.02
34235;BME280;20500;49.856;20.290;2022-12-29T11:26:50;98670.94;;;9.44;60.87
34235;BME280;20500;49.856;20.290;2022-12-29T11:30:02;98679.89;;;9.52;60.77
34235;BME280;20500;49.856;20.290;2022-12-29T11:33:18;98676.87;;;9.59;60.81
34235;BME280;20500;49.856;20.290;2022-12-29T11:36:25;98679.98;;;9.69;60.75
34235;BME280;20500;49.856;20.290;2022-12-29T11:39:36;98679.91;;;9.79;60.50
34235;BME280;20500;49.856;20.290;2022-12-29T11:42:50;98680.45;;;9.85;60.50
34235;BME280;20500;49.856;20.290;2022-12-29T11:45:57;98679.33;;;9.90;60.52
34235;BME280;20500;49.856;20.290;2022-12-29T11:49:04;98677.11;;;9.96;60.36
34235;BME280;20500;49.856;20.290;2022-12-29T11:52:10;98671.13;;;10.02;60.39
34235;BME280;20500;49.856;20.290;2022-12-29T11:55:21;98664.77;;;10.08;60.44
34235;BME280;20500;49.856;20.290;2022-12-29T11:58:34;98664.08;;;10.13;60.00
34235;BME280;20500;49.856;20.290;2022-12-29T12:01:41;98661.52;;;10.19;60.01
34235;BME280;20500;49.856;20.290;2022-12-29T12:04:51;98661.06;;;10.25;60.13
34235;BME280;20500;49.856;20.290;2022-12-29T12:08:05;98658.59;;;10.30;59.78
34235;BME280;20500;49.856;20.290;2022-12-29T12:11:24;98660.94;;;10.33;59.70
34235;BME280;20500;49.856;20.290;2022-12-29T12:14:36;98661.31;;;10.37;59.70
34235;BME280;20500;49.856;20.290;2022-12-29T12:17:51;98666.50;;;10.40;59.63
34235;BME280;20500;49.856;20.290;2022-12-29T12:21:05;98671.80;;;10.42;59.52
34235;BME280;20500;49.856;20.290;2022-12-29T12:24:30;98670.69;;;10.48;59.67
34235;BME280;20500;49.856;20.290;2022-12-29T12:27:43;98663.64;;;10.54;59.48
34235;BME280;20500;49.856;20.290;2022-12-29T12:30:57;98663.80;;;10.57;59.40
34235;BME280;20500;49.856;20.290;2022-12-29T12:34:10;98662.57;;;10.55;59.18
34235;BME280;20500;49.856;20.290;2022-12-29T12:37:42;98661.68;;;10.48;59.10
34235;BME280;20500;49.856;20.290;2022-12-29T12:41:08;98664.49;;;10.37;59.06
34235;BME280;20500;49.856;20.290;2022-12-29T12:44:28;98669.91;;;10.26;58.84
34235;BME280;20500;49.856;20.290;2022-12-29T12:47:55;98668.59;;;10.16;59.11
34235;BME280;20500;49.856;20.290;2022-12-29T12:51:12;98663.23;;;10.06;58.82
34235;BME280;20500;49.856;20.290;2022-12-29T12:54:35;98663.89;;;9.96;58.86
34235;BME280;20500;49.856;20.290;2022-12-29T12:57:52;98665.31;;;9.87;58.92
34235;BME280;20500;49.856;20.290;2022-12-29T13:01:11;98662.81;;;9.79;58.80
34235;BME280;20500;49.856;20.290;2022-12-29T13:04:51;98662.27;;;9.73;58.86
34235;BME280;20500;49.856;20.290;2022-12-29T13:11:40;98658.53;;;9.64;58.80
34235;BME280;20500;49.856;20.290;2022-12-29T13:15:02;98658.89;;;9.63;58.81
34235;BME280;20500;49.856;20.290;2022-12-29T13:18:20;98663.98;;;9.62;58.66
34235;BME280;20500;49.856;20.290;2022-12-29T13:21:40;98671.40;;;9.61;58.84
34235;BME280;20500;49.856;20.290;2022-12-29T13:25:15;98676.85;;;9.59;58.78
34235;BME280;20500;49.856;20.290;2022-12-29T13:28:29;98682.63;;;9.57;58.74
34235;BME280;20500;49.856;20.290;2022-12-29T13:31:42;98686.09;;;9.53;58.59
34235;BME280;20500;49.856;20.290;2022-12-29T13:34:59;98684.83;;;9.47;58.65
34235;BME280;20500;49.856;20.290;2022-12-29T13:38:12;98683.96;;;9.41;58.75
34235;BME280;20500;49.856;20.290;2022-12-29T13:41:24;98686.80;;;9.35;58.73
34235;BME280;20500;49.856;20.290;2022-12-29T13:44:34;98689.01;;;9.31;58.85
34235;BME280;20500;49.856;20.290;2022-12-29T13:47:44;98694.80;;;9.26;58.76
34235;BME280;20500;49.856;20.290;2022-12-29T13:50:55;98697.44;;;9.22;58.85
34235;BME280;20500;49.856;20.290;2022-12-29T13:54:09;98702.89;;;9.20;58.69
34235;BME280;20500;49.856;20.290;2022-12-29T13:57:19;98704.55;;;9.20;58.84
34235;BME280;20500;49.856;20.290;2022-12-29T14:00:31;98709.19;;;9.18;58.79
34235;BME280;20500;49.856;20.290;2022-12-29T14:03:46;98714.28;;;9.15;58.88
34235;BME280;20500;49.856;20.290;2022-12-29T14:07:02;98717.77;;;9.14;58.79
34235;BME280;20500;49.856;20.290;2022-12-29T14:10:18;98715.30;;;9.13;58.78
34235;BME280;20500;49.856;20.290;2022-12-29T14:13:29;98720.45;;;9.10;58.71
34235;BME280;20500;49.856;20.290;2022-12-29T14:16:34;98719.77;;;9.05;58.77
34235;BME280;20500;49.856;20.290;2022-12-29T14:19:39;98713.58;;;8.99;58.74
34235;BME280;20500;49.856;20.290;2022-12-29T14:22:56;98708.52;;;8.94;58.73
34235;BME280;20500;49.856;20.290;2022-12-29T14:26:09;98706.44;;;8.91;58.74
34235;BME280;20500;49.856;20.290;2022-12-29T14:29:41;98702.50;;;8.86;58.76
34235;BME280;20500;49.856;20.290;2022-12-29T14:32:49;98699.78;;;8.83;58.85
34235;BME280;20500;49.856;20.290;2022-12-29T14:36:21;98696.10;;;8.76;58.82
34235;BME280;20500;49.856;20.290;2022-12-29T14:39:29;98703.80;;;8.68;58.86
34235;BME280;20500;49.856;20.290;2022-12-29T14:42:34;98707.71;;;8.61;58.91
34235;BME280;20500;49.856;20.290;2022-12-29T14:45:39;98711.66;;;8.54;59.02
34235;BME280;20500;49.856;20.290;2022-12-29T14:48:45;98719.15;;;8.47;59.08
34235;BME280;20500;49.856;20.290;2022-12-29T14:51:49;98718.04;;;8.41;59.16
34235;BME280;20500;49.856;20.290;2022-12-29T14:54:55;98716.33;;;8.37;59.19
34235;BME280;20500;49.856;20.290;2022-12-29T14:58:04;98715.85;;;8.34;59.32
34235;BME280;20500;49.856;20.290;2022-12-29T15:01:20;98707.50;;;8.29;59.30
34235;BME280;20500;49.856;20.290;2022-12-29T15:04:27;98707.76;;;8.26;59.32
34235;BME280;20500;49.856;20.290;2022-12-29T15:07:34;98712.84;;;8.26;59.37
34235;BME280;20500;49.856;20.290;2022-12-29T15:10:41;98713.56;;;8.27;59.31
34235;BME280;20500;49.856;20.290;2022-12-29T15:13:47;98712.83;;;8.29;59.38
34235;BME280;20500;49.856;20.290;2022-12-29T15:16:52;98720.42;;;8.29;59.36
34235;BME280;20500;49.856;20.290;2022-12-29T15:19:57;98719.78;;;8.28;59.27
34235;BME280;20500;49.856;20.290;2022-12-29T15:23:02;98720.50;;;8.25;59.38
34235;BME280;20500;49.856;20.290;2022-12-29T15:26:07;98717.33;;;8.20;59.43
34235;BME280;20500;49.856;20.290;2022-12-29T15:32:40;98713.38;;;8.10;59.55
34235;BME280;20500;49.856;20.290;2022-12-29T15:35:48;98710.71;;;8.05;59.60
34235;BME280;20500;49.856;20.290;2022-12-29T15:38:54;98718.97;;;8.01;59.55
34235;BME280;20500;49.856;20.290;2022-12-29T15:41:59;98721.24;;;7.96;59.56
34235;BME280;20500;49.856;20.290;2022-12-29T15:45:08;98722.46;;;7.97;59.69
34235;BME280;20500;49.856;20.290;2022-12-29T15:48:15;98726.81;;;7.95;59.69
34235;BME280;20500;49.856;20.290;2022-12-29T15:51:22;98730.95;;;7.91;59.77
34235;BME280;20500;49.856;20.290;2022-12-29T15:54:29;98729.06;;;7.87;59.60
34235;BME280;20500;49.856;20.290;2022-12-29T15:57:38;98724.23;;;7.81;59.70
34235;BME280;20500;49.856;20.290;2022-12-29T16:00:47;98724.52;;;7.77;59.73
34235;BME280;20500;49.856;20.290;2022-12-29T16:03:52;98728.84;;;7.72;59.68
34235;BME280;20500;49.856;20.290;2022-12-29T16:06:59;98730.46;;;7.69;59.74
34235;BME280;20500;49.856;20.290;2022-12-29T16:10:04;98731.96;;;7.67;59.98
34235;BME280;20500;49.856;20.290;2022-12-29T16:13:12;98734.27;;;7.64;59.94
34235;BME280;20500;49.856;20.290;2022-12-29T16:16:20;98731.39;;;7.61;59.93
34235;BME280;20500;49.856;20.290;2022-12-29T16:19:27;98729.87;;;7.57;60.01
34235;BME280;20500;49.856;20.290;2022-12-29T16:22:33;98728.66;;;7.51;60.02
34235;BME280;20500;49.856;20.290;2022-12-29T16:25:38;98725.66;;;7.45;60.14
34235;BME280;20500;49.856;20.290;2022-12-29T16:28:46;98727.11;;;7.41;60.10
34235;BME280;20500;49.856;20.290;2022-12-29T16:31:52;98732.67;;;7.40;60.10
34235;BME280;20500;49.856;20.290;2022-12-29T16:35:08;98735.60;;;7.38;60.02
34235;BME280;20500;49.856;20.290;2022-12-29T16:38:14;98731.30;;;7.36;60.17
34235;BME280;20500;49.856;20.290;2022-12-29T16:41:29;98724.27;;;7.34;60.20
34235;BME280;20500;49.856;20.290;2022-12-29T16:44:34;98717.06;;;7.29;60.29
34235;BME280;20500;49.856;20.290;2022-12-29T16:47:39;98719.33;;;7.25;60.25
34235;BME280;20500;49.856;20.290;2022-12-29T16:50:43;98731.48;;;7.21;60.22
34235;BME280;20500;49.856;20.290;2022-12-29T16:53:49;98734.73;;;7.12;60.27